Time;durP1;ratioP1;P1;durP2;ratioP2;P2;SDS_P1;SDS_P2;PMS_P1;PMS_P2;Temp;Humidity;BMP_temperature;BMP_pressure;BME280_temperature;BME280_humidity;BME280_pressure;Samples;Min_cycle;Max_cycle;Signal;HPM_P1;HPM_P2
2022/04/05 00:01:50;;;;;;;;;15.00;11.25;;;;;14.84;49.60;101054.38;5067423;28;62007;-83
2022/04/05 00:04:15;;;;;;;;;12.25;12.25;;;;;14.85;50.61;101065.88;5085138;27;62053;-83
2022/04/05 00:06:40;;;;;;;;;14.00;12.25;;;;;14.84;50.46;101054.38;5084324;28;61873;-83
2022/04/05 00:09:07;;;;;;;;;12.75;11.25;;;;;14.80;51.16;101060.41;5084450;28;62042;-84
2022/04/05 00:11:32;;;;;;;;;15.25;12.50;;;;;14.88;50.73;101060.69;5084852;28;61924;-82
2022/04/05 00:13:58;;;;;;;;;11.00;8.00;;;;;14.86;51.00;101060.63;5085093;28;61836;-83
2022/04/05 00:16:23;;;;;;;;;8.50;8.50;;;;;14.84;51.32;101061.44;5100766;27;62040;-83
2022/04/05 00:18:48;;;;;;;;;12.25;12.25;;;;;14.92;50.99;101059.94;5083818;28;61877;-83
2022/04/05 00:21:14;;;;;;;;;16.25;12.00;;;;;14.91;50.80;101052.88;5084592;28;61921;-83
2022/04/05 00:23:49;;;;;;;;;12.25;12.00;;;;;14.98;51.05;101059.22;5085055;28;62058;-83
2022/04/05 00:26:14;;;;;;;;;9.75;9.25;;;;;14.98;51.18;101064.53;5085070;28;61833;-83
2022/04/05 00:28:40;;;;;;;;;9.75;8.75;;;;;15.03;51.28;101062.91;5099849;27;64672;-83
2022/04/05 00:31:05;;;;;;;;;7.50;7.00;;;;;14.93;51.87;101061.69;5085117;28;62171;-83
2022/04/05 00:33:31;;;;;;;;;13.25;11.50;;;;;14.93;52.04;101065.28;5100161;27;61929;-83
2022/04/05 00:35:57;;;;;;;;;17.75;13.00;;;;;14.77;52.38;101059.44;5084405;28;61891;-83
2022/04/05 00:38:22;;;;;;;;;17.00;12.25;;;;;14.79;52.84;101057.75;5083746;28;62469;-83
2022/04/05 00:40:47;;;;;;;;;9.50;9.50;;;;;14.76;52.90;101061.19;5100242;27;62396;-83
2022/04/05 00:43:13;;;;;;;;;16.50;13.50;;;;;14.82;52.77;101055.19;5084549;28;61987;-83
2022/04/05 00:45:38;;;;;;;;;14.25;11.25;;;;;14.82;52.55;101048.16;5084741;28;62105;-82
2022/04/05 00:48:06;;;;;;;;;9.75;9.75;;;;;14.76;53.51;101050.63;5083504;28;62742;-83
2022/04/05 00:50:37;;;;;;;;;6.00;5.00;;;;;14.77;52.91;101056.81;5084030;28;61881;-83
2022/04/05 00:53:05;;;;;;;;;12.25;12.25;;;;;14.67;53.55;101059.13;5084255;27;61934;-83
2022/04/05 00:55:32;;;;;;;;;13.00;12.00;;;;;14.69;53.28;101052.16;5084643;28;61745;-83
2022/04/05 00:57:59;;;;;;;;;11.75;11.00;;;;;14.70;54.37;101058.38;5099168;27;64929;-83
2022/04/05 01:00:25;;;;;;;;;13.00;11.75;;;;;14.75;53.96;101053.22;5084368;28;61922;-83
2022/04/05 01:02:54;;;;;;;;;13.00;11.50;;;;;14.79;54.54;101052.47;5078663;28;61942;-83
2022/04/05 01:05:21;;;;;;;;;13.00;13.00;;;;;14.80;54.40;101041.03;5078145;28;62804;-83
2022/04/05 01:07:50;;;;;;;;;9.50;9.50;;;;;14.88;53.92;101051.00;5098748;27;64825;-82
2022/04/05 01:10:16;;;;;;;;;15.00;11.75;;;;;14.89;53.26;101046.63;5082730;28;61849;-83
2022/04/05 01:12:42;;;;;;;;;11.25;11.00;;;;;14.86;53.69;101043.88;5083603;27;61880;-83
2022/04/05 01:15:08;;;;;;;;;12.50;11.25;;;;;14.85;53.98;101040.34;5084284;27;62057;-83
2022/04/05 01:17:36;;;;;;;;;10.75;9.50;;;;;14.89;53.69;101043.97;5083398;27;61810;-83
2022/04/05 01:20:03;;;;;;;;;15.50;11.00;;;;;14.92;53.29;101041.41;5081683;28;61904;-83
2022/04/05 01:22:28;;;;;;;;;11.75;10.75;;;;;14.90;53.88;101037.84;5117190;27;61788;-83
2022/04/05 01:24:54;;;;;;;;;11.25;10.50;;;;;14.88;53.90;101032.50;5082504;28;62033;-83
2022/04/05 01:27:19;;;;;;;;;9.25;8.25;;;;;14.90;53.52;101028.16;5083291;27;61694;-83
2022/04/05 01:29:47;;;;;;;;;12.00;11.00;;;;;14.96;53.40;101030.09;5083925;27;61851;-83
2022/04/05 01:32:13;;;;;;;;;10.25;10.25;;;;;14.88;54.19;101029.84;5083728;28;61888;-83
2022/04/05 01:34:39;;;;;;;;;6.25;6.00;;;;;14.84;54.57;101024.44;5081920;28;61876;-83
2022/04/05 01:37:10;;;;;;;;;12.50;8.75;;;;;14.86;54.60;101022.72;5082779;27;61814;-83
2022/04/05 01:39:39;;;;;;;;;14.75;11.00;;;;;14.86;54.60;101020.09;5082152;28;61895;-83
2022/04/05 01:42:12;;;;;;;;;10.25;10.00;;;;;14.76;55.17;101015.34;5083570;27;62193;-83
2022/04/05 01:44:39;;;;;;;;;13.75;10.50;;;;;14.87;54.46;101019.25;5082675;28;61845;-83
2022/04/05 01:47:09;;;;;;;;;9.00;9.00;;;;;14.85;55.18;101013.91;5082476;28;61990;-83
2022/04/05 01:49:35;;;;;;;;;14.00;12.00;;;;;14.95;54.58;101022.09;5083264;27;61950;-82
2022/04/05 01:52:01;;;;;;;;;14.75;12.50;;;;;14.93;54.58;101015.03;5081826;28;62314;-83
2022/04/05 01:54:26;;;;;;;;;15.00;14.00;;;;;14.90;54.60;101014.94;5082018;28;62012;-83
2022/04/05 01:56:52;;;;;;;;;13.25;12.75;;;;;14.91;54.85;101016.75;5081181;28;63553;-83
2022/04/05 01:59:24;;;;;;;;;11.25;11.25;;;;;14.90;54.49;101009.66;5083507;27;62370;-83
2022/04/05 02:01:49;;;;;;;;;11.75;10.00;;;;;14.98;54.41;101006.38;5082882;27;61783;-84
2022/04/05 02:04:15;;;;;;;;;12.75;11.00;;;;;14.97;54.42;101004.56;5098719;27;61808;-83
2022/04/05 02:06:42;;;;;;;;;10.00;8.75;;;;;14.97;54.41;101007.19;5082369;28;62093;-83
2022/04/05 02:09:09;;;;;;;;;7.00;6.25;;;;;14.94;54.51;101008.00;5082672;28;62016;-83
2022/04/05 02:11:36;;;;;;;;;15.25;10.00;;;;;14.92;54.80;101009.72;5099047;27;61943;-82
2022/04/05 02:14:01;;;;;;;;;13.75;12.50;;;;;14.95;54.34;101011.53;5083065;28;61868;-83
2022/04/05 02:16:27;;;;;;;;;12.75;11.00;;;;;15.01;54.47;101003.78;5098341;27;63911;-83
2022/04/05 02:18:53;;;;;;;;;11.00;11.00;;;;;14.92;54.64;101012.34;5082371;28;62055;-83
2022/04/05 02:21:18;;;;;;;;;17.00;12.50;;;;;14.89;54.80;101009.63;5082568;28;61945;-83
2022/04/05 02:23:44;;;;;;;;;11.25;10.75;;;;;14.96;54.45;101016.00;5082294;28;61858;-83
2022/04/05 02:26:10;;;;;;;;;11.75;11.75;;;;;14.98;54.37;101006.38;5082359;28;62044;-83
2022/04/05 02:28:35;;;;;;;;;9.50;9.50;;;;;15.01;54.38;101007.31;5083138;28;61785;-83
2022/04/05 02:31:01;;;;;;;;;13.25;9.75;;;;;15.07;54.65;101006.63;5082828;28;61812;-83
2022/04/05 02:33:27;;;;;;;;;11.00;10.00;;;;;15.05;54.28;101001.28;5082728;28;62086;-83
2022/04/05 02:35:52;;;;;;;;;13.00;11.50;;;;;15.04;54.44;101002.16;5082039;28;61852;-83
2022/04/05 02:38:18;;;;;;;;;14.50;12.75;;;;;15.00;54.89;100996.72;5082255;28;61774;-83
2022/04/05 02:40:44;;;;;;;;;14.00;11.50;;;;;14.95;55.60;100995.69;5082790;28;61781;-83
2022/04/05 02:43:09;;;;;;;;;12.50;12.00;;;;;14.93;55.69;100991.25;5098261;27;62161;-83
2022/04/05 02:45:35;;;;;;;;;10.75;10.75;;;;;14.99;55.14;100993.16;5080842;28;63569;-83
2022/04/05 02:48:00;;;;;;;;;14.75;10.75;;;;;15.02;54.92;100988.00;5097577;27;62026;-83
2022/04/05 02:50:26;;;;;;;;;14.00;12.75;;;;;14.96;55.27;100990.44;5097713;27;61799;-83
2022/04/05 02:52:52;;;;;;;;;11.25;11.00;;;;;15.02;55.62;100987.09;5082961;28;62112;-83
2022/04/05 02:55:18;;;;;;;;;11.50;11.00;;;;;14.95;56.04;100986.00;5081805;28;61793;-83
2022/04/05 02:57:45;;;;;;;;;14.75;10.75;;;;;14.97;55.92;100986.94;5082527;28;62046;-83
2022/04/05 03:00:12;;;;;;;;;15.00;13.00;;;;;14.98;56.43;100985.22;5082472;28;61910;-83
2022/04/05 03:02:38;;;;;;;;;10.50;9.25;;;;;14.99;56.25;100984.34;5082184;28;61895;-83
2022/04/05 03:05:06;;;;;;;;;9.25;9.25;;;;;14.89;56.88;100989.38;5096559;27;63656;-83
2022/04/05 03:07:32;;;;;;;;;10.50;10.50;;;;;14.91;56.61;100985.03;5082104;28;62289;-83
2022/04/05 03:09:57;;;;;;;;;12.00;12.00;;;;;14.93;55.95;100983.31;5082195;27;61873;-83
2022/04/05 03:12:22;;;;;;;;;14.50;10.50;;;;;14.93;56.45;100985.97;5082446;28;61795;-83
2022/04/05 03:14:48;;;;;;;;;11.00;10.00;;;;;14.91;56.55;100982.38;5081756;28;62774;-83
2022/04/05 03:17:14;;;;;;;;;8.25;7.00;;;;;14.89;56.62;100977.91;5081514;28;62540;-82
2022/04/05 03:19:39;;;;;;;;;10.50;7.25;;;;;14.94;56.26;100981.56;5082198;28;61803;-82
2022/04/05 03:22:11;;;;;;;;;13.00;11.00;;;;;14.99;56.04;100974.66;5081906;28;61748;-83
2022/04/05 03:24:37;;;;;;;;;7.75;6.75;;;;;15.02;56.13;100980.06;5081553;28;61751;-83
2022/04/05 03:27:03;;;;;;;;;9.50;9.50;;;;;15.00;55.98;100979.13;5081801;28;61858;-83
2022/04/05 03:29:29;;;;;;;;;14.25;13.25;;;;;15.01;56.29;100980.00;5081861;28;61911;-83
2022/04/05 03:31:54;;;;;;;;;11.25;9.00;;;;;14.90;56.80;100971.75;5082338;28;62034;-82
2022/04/05 03:34:20;;;;;;;;;10.50;10.50;;;;;14.93;56.46;100975.41;5081174;27;61765;-83
2022/04/05 03:36:45;;;;;;;;;7.50;7.00;;;;;14.93;56.53;100972.75;5085233;28;62101;-83
2022/04/05 03:39:13;;;;;;;;;7.25;7.25;;;;;15.00;56.42;100968.53;5085288;28;62437;-83
2022/04/05 03:41:39;;;;;;;;;9.00;9.00;;;;;15.04;56.06;100969.50;5085867;28;61902;-83
2022/04/05 03:44:06;;;;;;;;;10.25;10.25;;;;;15.05;56.96;100976.59;5100172;27;64953;-83
2022/04/05 03:46:31;;;;;;;;;8.75;8.25;;;;;15.02;56.66;100968.59;5101520;27;62129;-83
2022/04/05 03:48:58;;;;;;;;;9.50;7.00;;;;;15.01;56.67;100964.13;5085162;28;62167;-83
2022/04/05 03:51:23;;;;;;;;;8.00;8.00;;;;;15.01;57.22;100965.03;5084780;28;62351;-83
2022/04/05 03:53:49;;;;;;;;;12.25;8.50;;;;;14.99;57.42;100964.09;5084945;28;61726;-83
2022/04/05 03:56:14;;;;;;;;;7.00;7.00;;;;;15.01;57.40;100962.38;5100525;27;61859;-82
2022/04/05 03:58:40;;;;;;;;;9.00;7.50;;;;;15.04;57.16;100962.50;5100648;27;61737;-82
2022/04/05 04:01:06;;;;;;;;;10.25;10.25;;;;;15.02;57.81;100958.91;5101215;27;62114;-83
2022/04/05 04:03:32;;;;;;;;;8.75;6.75;;;;;15.03;57.36;100967.72;5099875;27;64196;-83
2022/04/05 04:05:59;;;;;;;;;6.25;3.75;;;;;15.03;57.62;100962.44;5084987;28;61944;-83
2022/04/05 04:08:25;;;;;;;;;10.00;7.00;;;;;15.07;57.76;100961.69;5084278;28;62108;-83
2022/04/05 04:10:58;;;;;;;;;10.25;9.50;;;;;14.99;57.84;100963.19;5085479;28;61927;-83
2022/04/05 04:13:26;;;;;;;;;10.25;8.50;;;;;15.01;57.99;100958.84;5084142;28;62515;-83
2022/04/05 04:15:51;;;;;;;;;10.50;9.00;;;;;15.01;58.34;100959.75;5085107;28;61943;-83
2022/04/05 04:18:17;;;;;;;;;11.50;9.50;;;;;14.96;58.39;100953.44;5084581;28;62899;-83
2022/04/05 04:20:42;;;;;;;;;12.25;9.00;;;;;14.87;58.90;100951.44;5100496;27;62089;-83
2022/04/05 04:23:09;;;;;;;;;11.50;9.25;;;;;14.86;58.75;100949.63;5084009;28;62765;-83
2022/04/05 04:25:37;;;;;;;;;9.25;8.75;;;;;14.81;59.00;100953.00;5106125;27;61876;-82
2022/04/05 04:28:05;;;;;;;;;13.50;8.75;;;;;14.85;59.32;100953.13;5090150;27;62159;-83
2022/04/05 04:30:31;;;;;;;;;8.50;8.00;;;;;14.91;58.60;100955.06;5084928;28;62160;-83
2022/04/05 04:32:57;;;;;;;;;7.00;7.00;;;;;14.91;59.05;100945.38;5100002;27;64989;-83
2022/04/05 04:35:23;;;;;;;;;7.50;7.50;;;;;14.95;59.11;100951.63;5084051;28;62103;-82
2022/04/05 04:37:48;;;;;;;;;12.75;11.25;;;;;14.88;59.84;100954.97;5084173;28;61812;-83
2022/04/05 04:40:14;;;;;;;;;9.75;9.75;;;;;14.98;59.04;100950.84;5084674;28;61629;-83
2022/04/05 04:42:39;;;;;;;;;9.50;9.50;;;;;14.90;59.22;100946.22;5083805;28;61726;-84
2022/04/05 04:45:05;;;;;;;;;14.00;9.00;;;;;14.89;59.46;100952.38;5084577;28;61817;-83
2022/04/05 04:47:31;;;;;;;;;8.75;7.50;;;;;14.97;58.99;100949.94;5083324;28;61901;-82
2022/04/05 04:49:56;;;;;;;;;10.25;9.25;;;;;14.93;59.61;100948.03;5084475;28;61929;-82
2022/04/05 04:52:22;;;;;;;;;12.00;9.50;;;;;14.96;59.34;100949.91;5083533;27;62433;-84
2022/04/05 04:54:47;;;;;;;;;10.00;9.25;;;;;14.95;59.73;100946.34;5083851;28;62096;-83
2022/04/05 04:57:13;;;;;;;;;12.75;11.00;;;;;14.99;59.06;100942.94;5084154;28;61985;-82
2022/04/05 04:59:38;;;;;;;;;12.25;11.50;;;;;15.03;59.19;100946.59;5084356;28;62187;-84
2022/04/05 05:02:03;;;;;;;;;7.00;3.00;;;;;15.03;59.00;100936.91;5098782;27;63576;-83
2022/04/05 05:04:30;;;;;;;;;10.75;10.75;;;;;15.01;59.83;100943.00;5083881;27;62104;-83
2022/04/05 05:06:55;;;;;;;;;6.25;5.25;;;;;15.02;59.61;100950.09;5099499;27;61977;-83
2022/04/05 05:09:21;;;;;;;;;6.75;6.75;;;;;14.99;59.27;100949.97;5083850;28;61762;-83
2022/04/05 05:11:47;;;;;;;;;12.25;9.75;;;;;15.01;59.65;100943.88;5082136;28;64756;-83
2022/04/05 05:14:12;;;;;;;;;8.25;7.75;;;;;14.99;59.91;100944.69;5099876;27;61955;-81
2022/04/05 05:16:37;;;;;;;;;10.75;10.00;;;;;15.01;59.68;100943.88;5083008;28;61814;-83
2022/04/05 05:19:04;;;;;;;;;11.00;9.00;;;;;15.01;59.63;100950.94;5099968;27;62301;-83
2022/04/05 05:21:30;;;;;;;;;17.50;13.00;;;;;15.02;59.62;100948.34;5082689;27;62488;-83
2022/04/05 05:23:55;;;;;;;;;13.50;11.00;;;;;15.03;59.67;100941.28;5099681;27;61862;-83
2022/04/05 05:26:21;;;;;;;;;15.50;9.75;;;;;15.00;59.71;100947.41;5083713;27;62022;-83
2022/04/05 05:28:46;;;;;;;;;13.75;10.25;;;;;14.99;59.50;100937.66;5083941;27;61852;-83
2022/04/05 05:31:12;;;;;;;;;21.25;13.50;;;;;15.01;59.75;100938.59;5083399;27;61904;-81
2022/04/05 05:33:37;;;;;;;;;12.25;10.00;;;;;15.01;59.59;100940.34;5083471;27;62330;-82
2022/04/05 05:36:03;;;;;;;;;14.75;13.25;;;;;15.05;59.44;100936.94;5083540;27;62056;-83
2022/04/05 05:38:28;;;;;;;;;12.00;10.00;;;;;14.97;60.14;100938.47;5081546;28;61873;-83
2022/04/05 05:40:54;;;;;;;;;12.00;10.00;;;;;14.99;60.01;100939.41;5083177;28;61936;-82
2022/04/05 05:43:22;;;;;;;;;11.50;11.50;;;;;15.00;60.23;100941.22;5083984;27;61758;-82
2022/04/05 05:45:47;;;;;;;;;16.00;12.50;;;;;15.01;59.54;100943.88;5082374;28;62082;-82
2022/04/05 05:48:12;;;;;;;;;12.25;9.25;;;;;15.02;59.89;100942.16;5083558;27;61910;-81
2022/04/05 05:50:38;;;;;;;;;11.25;8.25;;;;;15.06;59.50;100937.00;5082181;28;62276;-82
2022/04/05 05:53:04;;;;;;;;;10.75;8.75;;;;;15.08;59.92;100937.03;5098999;27;61842;-81
2022/04/05 05:55:30;;;;;;;;;13.00;11.25;;;;;15.11;59.78;100940.66;5083009;28;62054;-79
2022/04/05 05:57:55;;;;;;;;;16.00;13.00;;;;;15.16;59.81;100935.50;5087209;27;62420;-80
2022/04/05 06:00:22;;;;;;;;;16.00;12.50;;;;;15.17;59.61;100941.66;5082544;27;61726;-80
2022/04/05 06:02:58;;;;;;;;;12.75;10.75;;;;;15.19;59.68;100946.16;5088962;27;62137;-79
2022/04/05 06:05:24;;;;;;;;;12.50;10.75;;;;;15.24;59.54;100951.59;5083040;28;61909;-79
2022/04/05 06:07:50;;;;;;;;;11.00;7.75;;;;;15.16;60.10;100950.47;5081867;28;62166;-79
2022/04/05 06:10:16;;;;;;;;;8.75;8.75;;;;;15.14;60.26;100955.69;5079753;28;63642;-80
2022/04/05 06:12:45;;;;;;;;;13.50;9.75;;;;;15.11;60.70;100955.63;5087322;28;61875;-82
2022/04/05 06:15:13;;;;;;;;;11.50;11.00;;;;;15.09;61.27;100954.69;5084521;28;62065;-81
2022/04/05 06:17:43;;;;;;;;;9.25;8.75;;;;;15.13;60.76;100964.50;5084662;27;61800;-82
2022/04/05 06:20:10;;;;;;;;;10.00;10.00;;;;;15.10;60.96;100965.31;5083223;28;62560;-81
2022/04/05 06:22:49;;;;;;;;;13.50;10.25;;;;;15.15;61.34;100969.84;5084160;27;61743;-79
2022/04/05 06:25:20;;;;;;;;;13.50;9.75;;;;;15.14;61.30;100968.91;5083281;28;61937;-84
2022/04/05 06:27:46;;;;;;;;;11.50;8.00;;;;;15.23;61.05;100971.84;5082891;28;61804;-84
2022/04/05 06:30:13;;;;;;;;;17.25;10.50;;;;;15.29;60.95;100969.34;5082009;28;61986;-79
2022/04/05 06:32:39;;;;;;;;;9.25;9.25;;;;;15.23;61.82;100976.22;5083074;28;61625;-80
2022/04/05 06:35:07;;;;;;;;;11.25;9.50;;;;;15.24;62.06;100981.56;5098176;27;62131;-80
2022/04/05 06:37:32;;;;;;;;;14.00;11.50;;;;;15.22;62.55;100982.38;5098228;27;61788;-81
2022/04/05 06:39:58;;;;;;;;;11.00;11.00;;;;;15.21;63.01;100989.41;5080065;27;63840;-81
2022/04/05 06:42:25;;;;;;;;;12.75;10.25;;;;;15.21;63.07;100983.22;5080752;28;61873;-79
2022/04/05 06:44:52;;;;;;;;;11.00;9.75;;;;;15.24;63.68;100978.03;5082074;27;61734;-84
2022/04/05 06:47:17;;;;;;;;;11.50;10.00;;;;;15.26;63.94;100987.78;5082669;27;62029;-84
2022/04/05 06:49:42;;;;;;;;;9.00;9.00;;;;;15.29;63.38;100979.03;5081101;28;61960;-79
2022/04/05 06:52:08;;;;;;;;;17.50;10.00;;;;;15.29;63.43;100974.66;5096809;27;61977;-79
2022/04/05 06:54:33;;;;;;;;;11.25;9.00;;;;;15.28;63.20;100982.56;5081027;27;62023;-80
2022/04/05 06:56:59;;;;;;;;;10.75;8.00;;;;;15.28;63.13;100987.84;5080052;28;61933;-79
2022/04/05 06:59:24;;;;;;;;;11.50;11.25;;;;;15.38;63.19;100986.34;5080500;27;61990;-79
2022/04/05 07:01:49;;;;;;;;;8.75;7.75;;;;;15.42;63.07;100985.56;5086748;27;63752;-79
2022/04/05 07:04:15;;;;;;;;;14.00;10.00;;;;;15.43;62.77;100972.41;5071347;27;62509;-79
2022/04/05 07:06:40;;;;;;;;;9.50;9.00;;;;;15.50;63.21;100982.28;5076849;27;61993;-79
2022/04/05 07:09:07;;;;;;;;;21.25;11.50;;;;;15.51;62.86;100975.25;5060100;28;61818;-79
2022/04/05 07:11:33;;;;;;;;;9.00;7.75;;;;;15.58;62.98;100977.22;5061513;28;62010;-79
2022/04/05 07:13:58;;;;;;;;;8.25;7.75;;;;;15.69;62.50;100982.78;5077973;28;62676;-79
2022/04/05 07:16:23;;;;;;;;;8.00;7.75;;;;;15.69;62.77;100973.09;5114106;27;61870;-79
2022/04/05 07:18:49;;;;;;;;;9.75;9.50;;;;;15.59;62.81;100973.69;5080838;28;62744;-79
2022/04/05 07:21:15;;;;;;;;;14.00;9.75;;;;;15.63;63.19;100972.94;5076651;28;61834;-79
2022/04/05 07:23:41;;;;;;;;;8.75;8.75;;;;;15.70;62.44;100977.56;5061273;28;61800;-79
2022/04/05 07:26:07;;;;;;;;;10.50;9.00;;;;;15.73;62.79;100976.75;5061551;28;61702;-79
2022/04/05 07:28:33;;;;;;;;;7.25;5.25;;;;;15.69;62.59;100977.50;5060925;28;62030;-79
2022/04/05 07:30:58;;;;;;;;;7.25;5.75;;;;;15.74;62.69;100973.25;5078889;28;61766;-79
2022/04/05 07:33:24;;;;;;;;;9.50;8.00;;;;;15.79;62.65;100970.72;5097309;27;61962;-79
2022/04/05 07:35:50;;;;;;;;;10.25;9.50;;;;;15.78;62.13;100976.88;5081346;27;61855;-79
2022/04/05 07:38:17;;;;;;;;;9.25;9.25;;;;;15.86;62.72;100975.34;5096144;27;64824;-79
2022/04/05 07:40:48;;;;;;;;;8.25;8.00;;;;;15.92;62.59;100980.78;5114167;27;61896;-79
2022/04/05 07:43:19;;;;;;;;;11.00;9.50;;;;;15.89;62.65;100981.59;5081548;27;61809;-79
2022/04/05 07:45:48;;;;;;;;;8.75;8.25;;;;;15.89;64.00;100988.63;5097311;27;62133;-79
2022/04/05 07:48:14;;;;;;;;;14.00;8.00;;;;;15.94;63.85;100987.91;5075605;28;64560;-79
2022/04/05 07:50:39;;;;;;;;;20.00;12.75;;;;;16.02;63.94;100985.44;5059058;28;62005;-79
2022/04/05 07:53:05;;;;;;;;;13.75;10.25;;;;;16.09;63.78;100981.22;5060823;28;61863;-79
2022/04/05 07:55:31;;;;;;;;;11.25;9.00;;;;;16.11;63.32;100982.13;5059922;28;61999;-79
2022/04/05 07:57:57;;;;;;;;;12.00;11.50;;;;;16.22;62.20;100969.19;5060152;28;61924;-79
2022/04/05 08:00:23;;;;;;;;;17.00;11.75;;;;;16.24;63.17;100980.69;5059750;28;61846;-79
2022/04/05 08:02:50;;;;;;;;;9.00;7.25;;;;;16.12;62.99;100987.47;5071215;28;61814;-79
2022/04/05 08:05:16;;;;;;;;;11.50;9.75;;;;;15.99;63.19;100987.13;5081189;27;61724;-79
2022/04/05 08:07:41;;;;;;;;;10.00;10.00;;;;;16.11;62.79;100988.34;5080417;27;62869;-78
2022/04/05 08:10:07;;;;;;;;;10.25;9.00;;;;;16.11;63.36;100996.28;5080117;27;61857;-79
2022/04/05 08:12:45;;;;;;;;;17.25;9.75;;;;;16.12;63.03;100998.06;5080685;27;61863;-79
2022/04/05 08:15:16;;;;;;;;;10.50;10.50;;;;;16.14;63.05;100992.81;5080628;28;61971;-79
2022/04/05 08:17:42;;;;;;;;;9.00;7.00;;;;;16.25;62.92;100999.25;5079812;27;62778;-79
2022/04/05 08:20:09;;;;;;;;;11.75;10.00;;;;;16.31;62.75;100991.47;5078543;28;62249;-79
2022/04/05 08:22:35;;;;;;;;;12.25;8.00;;;;;16.39;62.74;100986.38;5073787;27;62218;-79
2022/04/05 08:25:00;;;;;;;;;9.50;9.50;;;;;16.47;62.60;100989.19;5078807;27;62036;-78
2022/04/05 08:27:26;;;;;;;;;12.00;11.00;;;;;16.54;62.39;100994.69;5099873;27;62782;-79
2022/04/05 08:29:52;;;;;;;;;13.00;10.00;;;;;16.59;62.23;100997.44;5102740;27;62128;-79
2022/04/05 08:32:17;;;;;;;;;9.25;7.50;;;;;16.67;62.35;100993.19;5093392;27;61859;-79
2022/04/05 08:34:45;;;;;;;;;13.50;12.75;;;;;16.73;62.16;100988.03;5093889;27;61748;-79
2022/04/05 08:37:12;;;;;;;;;13.00;11.50;;;;;16.69;62.23;100996.78;5103033;27;62006;-80
2022/04/05 08:39:38;;;;;;;;;10.75;9.00;;;;;16.72;61.98;101001.25;5120090;27;61945;-79
2022/04/05 08:42:05;;;;;;;;;12.00;12.00;;;;;16.84;62.14;100992.69;5104280;27;61780;-79
2022/04/05 08:44:31;;;;;;;;;12.00;10.75;;;;;16.82;61.76;100987.38;5105117;27;61786;-79
2022/04/05 08:46:59;;;;;;;;;14.00;12.50;;;;;16.74;61.91;100991.59;5103921;27;62914;-79
2022/04/05 08:49:25;;;;;;;;;14.25;12.25;;;;;16.77;62.08;100994.28;5098252;27;61767;-79
2022/04/05 08:51:50;;;;;;;;;11.00;11.00;;;;;16.83;62.21;100991.81;5084069;28;62000;-79
2022/04/05 08:54:16;;;;;;;;;19.25;14.00;;;;;16.79;61.99;100997.88;5083050;28;61963;-79
2022/04/05 08:56:42;;;;;;;;;15.25;12.25;;;;;16.90;62.17;100990.19;5082459;27;62906;-79
2022/04/05 08:59:07;;;;;;;;;14.00;12.00;;;;;17.01;61.86;100990.41;5084169;27;62154;-80
2022/04/05 09:01:34;;;;;;;;;14.00;12.50;;;;;17.06;61.81;100979.06;5090328;27;62030;-79
2022/04/05 09:04:00;;;;;;;;;11.00;8.75;;;;;17.14;61.06;100981.88;5080660;28;61980;-79
2022/04/05 09:06:28;;;;;;;;;14.00;10.25;;;;;17.13;61.13;100975.66;5085701;27;63873;-79
2022/04/05 09:09:16;;;;;;;;;11.50;9.50;;;;;17.24;60.80;100978.53;5080594;27;61933;-79
2022/04/05 09:11:50;;;;;;;;;15.00;13.50;;;;;17.26;60.69;100978.56;5083019;28;62130;-79
2022/04/05 09:14:30;;;;;;;;;11.75;11.75;;;;;17.29;60.55;100982.19;5083241;27;61775;-79
2022/04/05 09:17:08;;;;;;;;;11.50;9.50;;;;;17.30;60.40;100983.97;5083182;27;61829;-79
2022/04/05 09:19:38;;;;;;;;;15.00;9.75;;;;;17.51;60.77;100977.31;5082957;27;61939;-79
2022/04/05 09:22:04;;;;;;;;;14.25;11.00;;;;;17.61;60.13;100979.28;5083091;28;61798;-79
2022/04/05 09:24:37;;;;;;;;;14.00;13.25;;;;;17.72;59.75;100987.44;5099420;27;61844;-79
2022/04/05 09:27:04;;;;;;;;;14.25;12.00;;;;;17.68;59.56;100988.25;5082880;27;61897;-79
2022/04/05 09:29:45;;;;;;;;;12.25;10.00;;;;;17.61;59.61;100989.88;5083357;28;61861;-79
2022/04/05 09:32:31;;;;;;;;;14.00;11.75;;;;;17.68;59.65;100986.47;5082563;27;61730;-80
2022/04/05 09:34:57;;;;;;;;;11.00;10.75;;;;;17.73;59.86;100986.56;5081161;28;62153;-79
2022/04/05 09:37:26;;;;;;;;;12.25;10.25;;;;;17.67;59.76;100987.31;5081734;28;61931;-79
2022/04/05 09:39:52;;;;;;;;;17.75;11.75;;;;;17.65;60.00;100989.09;5083341;27;62141;-79
2022/04/05 09:42:17;;;;;;;;;13.75;12.50;;;;;17.71;59.96;100993.59;5082690;28;61817;-79
2022/04/05 09:44:43;;;;;;;;;18.25;16.75;;;;;17.80;60.08;100988.44;5082735;27;61971;-79
2022/04/05 09:47:21;;;;;;;;;14.00;11.50;;;;;17.90;59.53;100982.47;5082286;28;61717;-79
2022/04/05 09:49:49;;;;;;;;;14.75;11.50;;;;;17.97;59.16;100976.41;5082121;27;61976;-79
2022/04/05 09:52:30;;;;;;;;;14.25;10.25;;;;;18.07;59.02;100984.53;5081918;28;61835;-79
2022/04/05 09:55:08;;;;;;;;;13.25;11.00;;;;;18.10;59.10;100998.78;5079298;28;61750;-79
2022/04/05 09:57:34;;;;;;;;;18.00;14.00;;;;;18.05;59.07;100988.91;5081732;28;62901;-80
2022/04/05 10:00:17;;;;;;;;;9.00;7.25;;;;;18.02;58.67;100991.50;5081053;28;61881;-79
2022/04/05 10:03:04;;;;;;;;;15.25;11.25;;;;;18.03;58.57;100986.22;5079378;27;62027;-79
2022/04/05 10:05:31;;;;;;;;;17.25;12.00;;;;;18.04;58.88;100990.69;5079711;28;61930;-80
2022/04/05 10:07:58;;;;;;;;;11.75;10.00;;;;;18.03;58.57;100983.56;5080617;27;62549;-79
2022/04/05 10:10:24;;;;;;;;;13.00;10.75;;;;;17.91;58.88;100981.63;5082202;27;62106;-78
2022/04/05 10:12:50;;;;;;;;;7.50;6.00;;;;;17.89;59.02;100990.44;5081283;27;61872;-78
2022/04/05 10:15:16;;;;;;;;;12.25;11.00;;;;;17.88;59.12;100988.63;5081329;27;61744;-78
2022/04/05 10:17:45;;;;;;;;;13.25;11.25;;;;;17.91;59.08;100980.69;5080160;28;62531;-78
2022/04/05 10:20:12;;;;;;;;;8.75;7.75;;;;;17.81;59.57;100994.66;5081272;27;61995;-79
2022/04/05 10:22:42;;;;;;;;;10.75;10.75;;;;;17.82;59.37;100989.41;5115567;27;62030;-78
2022/04/05 10:25:08;;;;;;;;;9.75;9.50;;;;;17.83;59.75;100987.66;5083088;28;61877;-78
2022/04/05 10:27:33;;;;;;;;;12.50;11.00;;;;;17.92;59.17;100988.69;5081643;28;61737;-79
2022/04/05 10:30:05;;;;;;;;;13.00;11.25;;;;;18.05;58.76;100983.59;5082254;28;62502;-78
2022/04/05 10:33:11;;;;;;;;;10.25;10.00;;;;;18.05;58.72;100986.25;5082146;28;61728;-78
2022/04/05 10:35:47;;;;;;;;;10.00;8.25;;;;;18.09;58.52;100982.78;5079584;28;62083;-79
2022/04/05 10:38:17;;;;;;;;;13.00;11.50;;;;;18.14;58.66;100991.72;5076941;28;63764;-79
2022/04/05 10:40:42;;;;;;;;;16.25;12.00;;;;;18.17;58.81;100994.44;5081139;27;62146;-79
2022/04/05 10:43:16;;;;;;;;;13.25;8.00;;;;;18.14;58.39;100983.75;5081375;27;62126;-79
2022/04/05 10:45:43;;;;;;;;;14.75;12.00;;;;;18.17;58.88;100975.84;5080186;27;62162;-79
2022/04/05 10:48:16;;;;;;;;;15.00;14.00;;;;;18.33;58.32;100979.63;5084894;27;61827;-78
2022/04/05 10:51:05;;;;;;;;;11.50;10.50;;;;;18.40;58.23;100978.84;5080207;28;61856;-79
2022/04/05 10:56:31;;;;;;;;;13.25;12.50;;;;;18.28;58.28;100970.72;5079654;28;61739;-80
2022/04/05 10:59:03;;;;;;;;;10.50;7.50;;;;;18.31;58.30;100982.25;5078174;28;64355;-78
2022/04/05 11:01:43;;;;;;;;;9.50;8.75;;;;;18.33;57.78;100975.19;5078456;28;62145;-78
2022/04/05 11:04:18;;;;;;;;;7.00;6.75;;;;;18.33;57.90;100976.97;5079747;28;61881;-79
2022/04/05 11:07:05;;;;;;;;;6.50;6.50;;;;;18.43;57.58;100970.94;5080053;27;61890;-80
2022/04/05 11:09:34;;;;;;;;;8.00;7.00;;;;;18.51;57.87;100965.72;5094302;27;63625;-80
2022/04/05 11:12:06;;;;;;;;;10.00;9.75;;;;;18.59;57.64;100972.03;5080278;27;62137;-80
2022/04/05 11:14:50;;;;;;;;;8.25;7.25;;;;;18.57;57.55;100966.72;5075863;27;61758;-80
2022/04/05 11:17:17;;;;;;;;;8.25;7.25;;;;;18.47;57.88;100964.81;5078443;28;61950;-86
2022/04/05 11:19:47;;;;;;;;;12.25;7.00;;;;;18.34;58.24;100973.47;5080748;28;62926;-77